createdAt,value
2019-03-29T01:09:19.231Z,10.13
2019-03-29T02:04:35.289Z,11.85
2019-03-29T02:08:37.971Z,11.45
2019-03-29T02:11:06.794Z,11.45
2019-03-29T02:13:35.277Z,10.63
2019-03-29T02:16:03.971Z,10.45
2019-03-29T02:18:32.867Z,10.38
2019-03-29T02:21:01.741Z,10.40
2019-03-29T02:23:30.882Z,10.75
2019-03-29T02:25:59.591Z,11.12
2019-03-29T02:28:28.086Z,10.53
2019-03-29T07:49:09.023Z,10.23
2019-03-29T07:51:37.861Z,20.72
2019-03-29T07:54:06.341Z,22.07
2019-03-29T07:56:35.010Z,20.43
2019-03-29T07:59:03.524Z,21.27
2019-03-29T08:01:32.587Z,21.35
2019-03-29T08:04:01.422Z,21.65
2019-03-29T08:06:29.900Z,21.97
2019-03-29T08:08:58.487Z,23.30
2019-03-29T08:11:28.387Z,22.98
2019-03-29T08:13:57.309Z,23.05
2019-03-29T08:16:25.819Z,22.52
2019-03-29T08:18:54.424Z,22.45
2019-03-29T08:21:23.293Z,20.82
2019-03-29T08:23:51.941Z,22.60
2019-03-29T08:26:20.426Z,23.22
2019-03-29T08:28:48.913Z,21.40
2019-03-29T08:31:17.460Z,20.52
2019-03-29T08:33:46.130Z,21.70
2019-03-29T08:36:14.851Z,23.38
2019-03-29T08:38:43.642Z,23.02
2019-03-29T08:41:12.117Z,22.10
2019-03-29T08:43:40.636Z,20.55
2019-03-29T08:46:09.183Z,20.30
2019-03-29T08:48:37.850Z,19.98
2019-03-29T08:51:06.367Z,21.20
2019-03-29T08:53:35.239Z,21.12
2019-03-29T08:56:03.815Z,21.52
2019-03-29T08:58:32.300Z,20.60
2019-03-29T09:01:00.942Z,20.60
2019-03-29T09:03:29.701Z,19.67
2019-03-29T09:05:58.241Z,19.50
2019-03-29T09:08:26.971Z,19.05
2019-03-29T09:10:55.442Z,17.90
2019-03-29T09:13:24.336Z,17.98
2019-03-29T09:15:53.100Z,19.57
2019-03-29T09:18:21.585Z,19.40
2019-03-29T09:20:50.208Z,18.67
2019-03-29T09:23:18.879Z,18.87
2019-03-29T09:25:47.364Z,19.67
2019-03-29T09:28:15.953Z,18.70
2019-03-29T09:30:44.832Z,18.80
2019-03-29T09:33:13.597Z,19.07
2019-03-29T09:35:42.862Z,19.77
2019-03-29T09:38:12.021Z,19.50
2019-03-29T09:40:40.518Z,21.10
2019-03-29T09:43:09.449Z,21.05
2019-03-29T09:45:41.079Z,20.43
2019-03-29T09:48:08.172Z,20.50
2019-03-29T09:50:36.834Z,20.37
2019-03-29T09:53:05.412Z,21.48
2019-03-29T09:55:35.127Z,22.45
2019-03-29T09:58:03.730Z,21.55
2019-03-29T10:00:32.457Z,22.73
2019-03-29T10:03:00.941Z,23.62
2019-03-29T10:05:31.352Z,23.35
2019-03-29T10:07:59.843Z,23.65
2019-03-29T10:10:28.405Z,23.40
2019-03-29T10:12:56.999Z,25.27
2019-03-29T10:15:25.979Z,25.43
2019-03-29T10:17:54.626Z,25.27
2019-03-29T10:20:23.115Z,26.15
2019-03-29T10:22:51.788Z,24.10
2019-03-29T10:25:20.516Z,25.45
2019-03-29T10:27:49.246Z,26.42
2019-03-29T10:30:37.406Z,26.55
2019-03-29T10:33:06.243Z,26.37
2019-03-29T10:35:50.253Z,25.72
2019-03-29T10:38:06.530Z,23.10
2019-03-29T10:40:35.273Z,22.35
2019-03-29T10:43:03.990Z,22.30
2019-03-29T10:45:38.022Z,23.05
2019-03-29T10:48:03.283Z,23.02
2019-03-29T10:50:31.756Z,22.58
2019-03-29T10:53:00.878Z,23.05
2019-03-29T10:55:29.461Z,24.15
2019-03-29T10:57:57.985Z,23.12
2019-03-29T11:00:38.138Z,23.77
2019-03-29T11:03:07.732Z,24.12
2019-03-29T11:05:36.318Z,24.80
2019-03-29T11:08:05.270Z,25.88
2019-03-29T11:10:36.849Z,25.95
2019-03-29T11:13:13.226Z,26.00
2019-03-29T11:15:36.236Z,25.30
2019-03-29T11:18:05.683Z,24.65
2019-03-29T11:20:34.176Z,25.52
2019-03-29T11:23:02.732Z,25.65
2019-03-29T11:25:31.292Z,27.35
2019-03-29T11:28:00.056Z,25.35
2019-03-29T11:30:41.426Z,27.00
2019-03-29T11:32:58.852Z,26.80
2019-03-29T11:35:28.619Z,26.48
2019-03-29T11:37:57.196Z,24.10
2019-03-29T11:40:25.669Z,26.07
2019-03-29T11:42:54.168Z,25.65
2019-03-29T11:45:22.953Z,25.05
2019-03-29T11:47:51.430Z,25.20
2019-03-29T11:50:19.891Z,23.35
2019-03-29T11:52:48.506Z,23.57
2019-03-29T11:55:16.980Z,23.57
2019-03-29T11:57:45.457Z,23.00
2019-03-29T12:00:14.971Z,22.95
2019-03-29T12:02:43.481Z,23.90
2019-03-29T12:05:12.046Z,25.57
2019-03-29T12:07:40.576Z,25.27
2019-03-29T12:10:09.473Z,24.15
2019-03-29T12:12:38.077Z,23.40
2019-03-29T12:15:08.471Z,24.20
2019-03-29T12:17:37.060Z,24.18
2019-03-29T12:20:07.201Z,24.00
2019-03-29T12:22:36.139Z,23.70
2019-03-29T12:25:06.598Z,24.45
2019-03-29T12:27:35.082Z,24.47
2019-03-29T12:30:05.443Z,25.80
2019-03-29T12:32:34.131Z,25.12
2019-03-29T12:35:02.613Z,24.23
2019-03-29T12:37:32.323Z,25.27
2019-03-29T12:40:00.803Z,24.57
2019-03-29T12:42:29.362Z,23.80
2019-03-29T12:44:57.869Z,24.77
2019-03-29T12:47:26.351Z,26.37
2019-03-29T12:49:56.369Z,25.62
2019-03-29T12:52:25.315Z,24.18
2019-03-29T12:54:53.918Z,24.37
2019-03-29T12:57:22.431Z,26.30
2019-03-29T12:59:51.357Z,26.50
2019-03-29T13:02:19.910Z,26.07
2019-03-29T13:04:48.459Z,26.45
2019-03-29T13:07:17.057Z,27.42
2019-03-29T13:09:45.632Z,28.30
2019-03-29T13:12:14.175Z,28.20
2019-03-29T13:14:42.740Z,27.87
2019-03-29T13:17:11.273Z,27.55
2019-03-29T13:19:39.782Z,26.82
2019-03-29T13:22:09.278Z,28.47
2019-03-29T13:24:37.762Z,27.37
2019-03-29T13:27:06.310Z,25.55
2019-03-29T13:29:34.816Z,26.27
2019-03-29T13:32:03.302Z,24.87
2019-03-29T13:34:31.771Z,25.75
2019-03-29T13:37:00.603Z,26.85
2019-03-29T13:39:29.074Z,25.15
2019-03-29T13:41:57.560Z,26.55
2019-03-29T13:44:28.309Z,27.67
2019-03-29T13:46:56.427Z,26.07
2019-03-29T13:49:24.922Z,25.97
2019-03-29T13:51:53.411Z,26.42
2019-03-29T13:54:21.880Z,24.90
2019-03-29T13:56:50.439Z,24.85
2019-03-29T13:59:19.169Z,25.08
2019-03-29T14:01:47.662Z,25.77
2019-03-29T14:04:16.169Z,24.25
2019-03-29T14:06:45.048Z,24.18
2019-03-29T14:09:13.559Z,23.75
2019-03-29T14:11:42.040Z,25.95
2019-03-29T14:14:10.734Z,23.98
2019-03-29T14:16:39.208Z,24.07
2019-03-29T14:19:07.863Z,24.25
2019-03-29T14:21:36.381Z,24.10
2019-03-29T14:24:04.988Z,23.75
2019-03-29T14:26:33.469Z,23.38
2019-03-29T14:29:02.401Z,24.07
2019-03-29T14:31:31.030Z,22.32
2019-03-29T14:33:59.521Z,21.82
2019-03-29T14:36:28.097Z,22.35
2019-03-29T14:38:56.572Z,20.70
2019-03-29T14:41:25.179Z,21.55
2019-03-29T14:43:53.712Z,20.92
2019-03-29T14:46:22.207Z,23.47
2019-03-29T14:48:50.870Z,23.90
2019-03-29T14:51:19.688Z,22.50
2019-03-29T14:53:48.198Z,21.75
2019-03-29T14:56:16.682Z,21.45
2019-03-29T14:58:45.327Z,19.95
2019-03-29T15:01:13.859Z,20.88
2019-03-29T15:03:42.366Z,20.77
2019-03-29T15:06:11.549Z,21.60
2019-03-29T15:08:40.376Z,21.52
2019-03-29T15:11:21.630Z,21.73
2019-03-29T15:13:39.390Z,21.70
2019-03-29T15:16:08.061Z,22.27
2019-03-29T15:18:37.000Z,21.62
2019-03-29T15:21:06.016Z,20.62
2019-03-29T15:23:34.501Z,22.22
2019-03-29T15:26:03.218Z,21.00
2019-03-29T15:28:31.933Z,21.50
2019-03-29T15:31:01.661Z,22.02
2019-03-29T15:33:30.150Z,20.72
2019-03-29T15:35:58.889Z,20.27
2019-03-29T15:38:27.464Z,21.23
2019-03-29T15:40:58.633Z,21.33
2019-03-29T15:43:27.138Z,20.90
2019-03-29T15:45:55.623Z,20.92
2019-03-29T15:48:24.156Z,20.55
2019-03-29T15:50:54.075Z,20.65
2019-03-29T15:53:22.584Z,20.55
2019-03-29T15:55:51.085Z,21.20
2019-03-29T15:58:19.641Z,21.80
2019-03-29T16:00:48.194Z,23.40
2019-03-29T16:03:16.663Z,22.82
2019-03-29T16:05:48.331Z,24.43
2019-03-29T16:08:15.601Z,24.47
2019-03-29T16:10:44.101Z,23.83
2019-03-29T16:13:12.660Z,24.77
2019-03-29T16:15:41.523Z,24.82
2019-03-29T16:18:10.082Z,24.05
2019-03-29T16:20:38.593Z,25.17
2019-03-29T16:23:07.150Z,24.65
2019-03-29T16:25:35.602Z,24.85
2019-03-29T16:28:04.168Z,24.87
2019-03-29T16:30:32.653Z,24.45
2019-03-29T16:33:01.112Z,24.98
2019-03-29T16:35:30.267Z,26.25
2019-03-29T16:37:58.746Z,25.05
2019-03-29T16:40:27.279Z,25.82
2019-03-29T16:42:55.822Z,26.42
2019-03-29T16:45:24.567Z,25.72
2019-03-29T16:47:53.320Z,25.37
2019-03-29T16:50:21.955Z,24.52
2019-03-29T16:52:50.532Z,24.82
2019-03-29T16:55:19.049Z,24.23
2019-03-29T16:57:48.293Z,25.60
2019-03-29T17:00:16.896Z,26.40
2019-03-29T17:02:45.371Z,26.55
2019-03-29T17:05:14.250Z,25.43
2019-03-29T17:07:42.783Z,25.80
2019-03-29T17:10:12.906Z,27.30
2019-03-29T17:12:41.622Z,27.55
2019-03-29T17:15:10.598Z,26.68
2019-03-29T17:17:39.070Z,28.15
2019-03-29T17:20:09.011Z,28.20
2019-03-29T17:22:37.936Z,29.05
2019-03-29T17:25:08.767Z,27.40
2019-03-29T17:27:37.754Z,27.40
2019-03-29T17:30:08.429Z,27.95
2019-03-29T17:32:37.175Z,28.07
2019-03-29T17:35:07.181Z,27.95
2019-03-29T17:37:35.732Z,27.07
2019-03-29T17:40:08.902Z,28.02
2019-03-29T17:42:37.649Z,27.58
2019-03-29T17:45:08.024Z,27.93
2019-03-29T17:47:36.609Z,28.98
2019-03-29T17:50:06.522Z,27.20
2019-03-29T17:52:35.036Z,27.45
2019-03-29T17:55:03.871Z,27.45
2019-03-29T17:57:32.396Z,28.38
2019-03-29T18:00:01.264Z,28.95
2019-03-29T18:02:29.773Z,28.65
2019-03-29T18:04:59.211Z,28.65
2019-03-29T18:07:27.737Z,28.73
2019-03-29T18:09:56.607Z,29.20
2019-03-29T18:12:25.175Z,29.35
2019-03-29T18:14:53.682Z,30.90
2019-03-29T18:17:22.202Z,30.40
2019-03-29T18:19:50.804Z,30.40
2019-03-29T18:22:19.296Z,29.80
2019-03-29T18:24:47.885Z,29.65
2019-03-29T18:27:16.404Z,29.92
2019-03-29T18:29:44.976Z,30.45
2019-03-29T18:32:13.695Z,30.52
2019-03-29T18:34:42.174Z,30.02
2019-03-29T18:37:13.401Z,30.60
2019-03-29T18:39:43.699Z,30.32
2019-03-29T18:42:12.170Z,29.32
2019-03-29T18:44:40.826Z,29.87
2019-03-29T18:47:09.342Z,30.08
2019-03-29T18:49:38.065Z,31.55
2019-03-29T18:52:06.847Z,31.55
2019-03-29T18:54:35.379Z,32.42
2019-03-29T18:57:03.863Z,33.80
2019-03-29T18:59:32.361Z,34.67
2019-03-29T19:02:01.008Z,34.48
2019-03-29T19:04:29.498Z,35.28
2019-03-29T19:06:58.036Z,38.13
2019-03-29T19:09:26.626Z,38.95
2019-03-29T19:11:55.145Z,39.58
2019-03-29T19:14:23.659Z,36.45
2019-03-29T19:16:58.753Z,37.33
2019-03-29T19:19:22.823Z,33.67
2019-03-29T19:21:51.368Z,34.10
2019-03-29T19:24:19.941Z,37.67
2019-03-29T19:26:48.486Z,35.35
2019-03-29T19:29:17.100Z,35.90
2019-03-29T19:31:46.208Z,37.13
2019-03-29T19:34:14.765Z,38.28
2019-03-29T19:36:43.271Z,38.23
2019-03-29T19:39:11.794Z,38.23
2019-03-29T19:41:40.411Z,39.35
2019-03-29T19:44:08.897Z,38.80
2019-03-29T19:46:37.497Z,37.75
2019-03-29T19:49:05.983Z,38.85
2019-03-29T19:51:34.472Z,38.75
2019-03-29T19:54:07.630Z,39.05
2019-03-29T19:56:34.760Z,40.88
2019-03-29T19:59:03.239Z,39.85
2019-03-29T20:01:31.837Z,39.53
2019-03-29T20:04:00.392Z,39.08
2019-03-29T20:06:28.875Z,39.40
2019-03-29T20:09:00.944Z,40.05
2019-03-29T20:11:27.845Z,39.92
2019-03-29T20:13:56.431Z,38.83
2019-03-29T20:16:26.233Z,37.55
2019-03-29T20:18:55.264Z,44.00
2019-03-29T20:21:24.219Z,44.88
2019-03-29T20:23:52.871Z,43.40
2019-03-29T20:26:21.587Z,45.73
2019-03-29T20:28:50.370Z,43.17
2019-03-29T20:31:19.386Z,45.10
2019-03-29T20:33:48.275Z,45.67
2019-03-29T20:36:22.811Z,45.80
2019-03-29T20:38:47.804Z,48.65
2019-03-29T20:41:17.195Z,48.17
2019-03-29T20:43:46.126Z,50.10
2019-03-29T20:46:14.790Z,47.25
2019-03-29T20:48:43.754Z,47.88
2019-03-29T20:51:12.779Z,48.48
2019-03-29T20:53:43.660Z,48.42
2019-03-29T20:56:13.655Z,45.63
2019-03-29T20:58:42.453Z,45.73
2019-03-29T21:01:11.098Z,47.95
2019-03-29T21:03:39.762Z,49.75
2019-03-29T21:06:08.392Z,50.23
2019-03-29T21:08:37.278Z,49.00
2019-03-29T21:11:06.166Z,50.50
2019-03-29T21:13:35.019Z,50.12
2019-03-29T21:16:04.064Z,50.63
2019-03-29T21:18:32.529Z,51.68
2019-03-29T21:21:01.344Z,51.83
2019-03-29T21:23:29.864Z,55.10
2019-03-29T21:25:58.339Z,53.70
2019-03-29T21:28:26.817Z,55.43
2019-03-29T21:30:55.518Z,55.25
2019-03-29T21:33:24.805Z,53.58
2019-03-29T21:35:53.733Z,57.27
2019-03-29T21:38:26.909Z,59.25
2019-03-29T21:40:55.359Z,62.13
2019-03-29T21:43:23.872Z,60.25
2019-03-29T21:45:52.661Z,56.10
2019-03-29T21:48:28.564Z,55.92
2019-03-29T21:50:51.757Z,57.45
2019-03-29T21:53:20.298Z,56.25
2019-03-29T21:55:48.897Z,57.08
2019-03-29T21:58:17.351Z,53.55
2019-03-29T22:00:46.101Z,54.25
2019-03-29T22:03:14.572Z,55.95
2019-03-29T22:05:43.053Z,54.38
2019-03-29T22:08:11.562Z,55.25
2019-03-29T22:10:40.194Z,55.15
2019-03-29T22:13:08.959Z,56.30
2019-03-29T22:15:37.838Z,56.70
2019-03-29T22:18:07.022Z,59.50
2019-03-29T22:20:35.556Z,58.50
2019-03-29T22:23:04.173Z,58.40
2019-03-29T22:25:32.659Z,57.80
2019-03-29T22:28:01.133Z,60.63
2019-03-29T22:30:29.935Z,59.53
2019-03-29T22:32:58.420Z,55.73
2019-03-29T22:35:26.923Z,58.33
2019-03-29T22:37:55.792Z,55.00
2019-03-29T22:40:24.345Z,55.25
2019-03-29T22:42:52.942Z,51.45
2019-03-29T22:45:21.454Z,59.55
2019-03-29T22:47:49.936Z,58.40
2019-03-29T22:50:18.488Z,58.02
2019-03-29T22:52:47.189Z,56.00
2019-03-29T22:55:15.938Z,56.53
2019-03-29T22:57:44.425Z,58.05
2019-03-29T23:00:34.307Z,55.73
2019-03-29T23:03:02.895Z,58.15
2019-03-29T23:05:31.448Z,58.20
2019-03-29T23:07:59.921Z,57.62
2019-03-29T23:10:28.415Z,58.87
2019-03-29T23:12:58.257Z,58.83
2019-03-29T23:15:27.177Z,60.60
2019-03-29T23:17:55.659Z,59.88
2019-03-29T23:20:24.208Z,58.33
2019-03-29T23:22:52.786Z,59.03
2019-03-29T23:25:21.273Z,57.62
2019-03-29T23:27:49.759Z,58.02
2019-03-29T23:30:19.103Z,57.65
2019-03-29T23:32:47.573Z,56.92
2019-03-29T23:35:16.236Z,58.70
2019-03-29T23:37:44.915Z,56.80
2019-03-29T23:40:13.422Z,57.62
2019-03-29T23:42:41.916Z,59.53
2019-03-29T23:45:10.674Z,58.08
2019-03-29T23:47:39.159Z,57.58
2019-03-29T23:50:08.264Z,60.17
2019-03-29T23:52:37.076Z,63.10
2019-03-29T23:55:06.255Z,63.35
2019-03-29T23:57:34.761Z,62.00
